createdAt,value
2019-03-24T00:01:14.682Z,20.40
2019-03-24T00:03:45.027Z,11.43
2019-03-24T00:06:15.426Z,18.50
2019-03-24T00:08:45.863Z,15.70
2019-03-24T00:11:16.194Z,16.20
2019-03-24T00:13:46.576Z,18.53
2019-03-24T00:16:17.006Z,15.13
2019-03-24T00:18:47.545Z,19.83
2019-03-24T00:21:21.276Z,15.80
2019-03-24T00:23:53.547Z,16.32
2019-03-24T00:26:23.834Z,21.73
2019-03-24T00:28:54.105Z,24.03
2019-03-24T00:31:25.441Z,18.23
2019-03-24T00:33:55.762Z,23.67
2019-03-24T00:36:26.296Z,16.10
2019-03-24T00:38:56.655Z,17.33
2019-03-24T00:41:26.896Z,22.87
2019-03-24T00:43:57.176Z,16.37
2019-03-24T00:46:27.544Z,15.87
2019-03-24T00:48:57.871Z,19.20
2019-03-24T00:51:28.162Z,22.43
2019-03-24T00:53:58.542Z,20.00
2019-03-24T00:56:28.925Z,18.63
2019-03-24T00:58:59.136Z,20.00
2019-03-24T01:01:29.535Z,19.07
2019-03-24T01:03:59.920Z,24.67
2019-03-24T01:06:30.453Z,19.10
2019-03-24T01:09:00.835Z,18.47
2019-03-24T01:11:32.690Z,19.17
2019-03-24T01:14:02.916Z,21.13
2019-03-24T01:16:33.372Z,19.13
2019-03-24T01:19:04.090Z,15.63
2019-03-24T01:21:34.538Z,25.17
2019-03-24T01:24:05.248Z,23.07
2019-03-24T01:26:35.559Z,25.60
2019-03-24T01:29:06.330Z,22.33
2019-03-24T01:31:36.683Z,24.27
2019-03-24T01:34:07.505Z,18.90
2019-03-24T01:36:38.555Z,28.70
2019-03-24T01:39:09.231Z,22.60
2019-03-24T01:41:39.593Z,21.47
2019-03-24T01:44:09.967Z,25.87
2019-03-24T01:46:40.371Z,24.47
2019-03-24T01:49:10.593Z,20.20
2019-03-24T01:51:40.979Z,15.93
2019-03-24T01:54:11.335Z,25.40
2019-03-24T01:56:41.690Z,19.97
2019-03-24T01:59:12.090Z,21.50
2019-03-24T02:01:42.382Z,22.50
2019-03-24T02:04:12.668Z,17.80
2019-03-24T02:06:42.927Z,21.07
2019-03-24T02:09:13.302Z,20.13
2019-03-24T02:11:43.850Z,21.33
2019-03-24T02:14:14.171Z,21.67
2019-03-24T02:16:45.099Z,16.03
2019-03-24T02:19:15.386Z,18.60
2019-03-24T02:21:45.735Z,19.10
2019-03-24T02:24:16.371Z,14.35
2019-03-24T02:26:46.678Z,23.37
2019-03-24T02:29:17.477Z,24.10
2019-03-24T02:31:47.811Z,12.93
2019-03-24T02:34:18.142Z,15.73
2019-03-24T02:36:48.838Z,21.20
2019-03-24T02:39:20.130Z,18.67
2019-03-24T02:41:50.429Z,20.10
2019-03-24T02:44:20.855Z,21.10
2019-03-24T02:46:51.797Z,19.43
2019-03-24T02:49:22.129Z,17.05
2019-03-24T02:51:52.481Z,18.80
2019-03-24T02:54:22.838Z,18.77
2019-03-24T02:56:53.104Z,14.57
2019-03-24T02:59:23.409Z,18.40
2019-03-24T03:01:57.264Z,12.88
2019-03-24T03:04:27.798Z,15.03
2019-03-24T03:06:58.057Z,16.93
2019-03-24T03:09:28.417Z,14.10
2019-03-24T03:11:58.817Z,17.45
2019-03-24T03:14:29.181Z,17.83
2019-03-24T03:16:59.471Z,15.53
2019-03-24T03:19:29.741Z,17.40
2019-03-24T03:22:00.143Z,17.63
2019-03-24T03:24:30.564Z,16.97
2019-03-24T03:27:00.887Z,11.57
2019-03-24T03:29:31.234Z,11.97
2019-03-24T03:32:01.459Z,18.03
2019-03-24T03:34:31.741Z,13.17
2019-03-24T03:37:02.169Z,18.10
2019-03-24T03:39:32.762Z,20.07
2019-03-24T03:42:03.376Z,17.00
2019-03-24T03:44:33.738Z,17.70
2019-03-24T03:47:04.156Z,15.20
2019-03-24T03:49:34.398Z,13.60
2019-03-24T03:52:04.919Z,12.55
2019-03-24T03:54:35.226Z,13.43
2019-03-24T03:57:05.544Z,17.73
2019-03-24T03:59:36.120Z,10.57
2019-03-24T04:02:06.496Z,15.17
2019-03-24T04:04:36.822Z,12.95
2019-03-24T04:07:07.545Z,16.33
2019-03-24T04:09:37.881Z,11.20
2019-03-24T04:12:08.205Z,15.40
2019-03-24T04:14:39.334Z,14.97
2019-03-24T04:17:09.878Z,15.53
2019-03-24T04:19:40.116Z,18.17
2019-03-24T04:22:10.403Z,10.97
2019-03-24T04:24:40.655Z,15.33
2019-03-24T04:27:10.899Z,16.80
2019-03-24T04:29:41.211Z,16.70
2019-03-24T04:32:11.554Z,18.70
2019-03-24T04:34:41.844Z,14.80
2019-03-24T04:37:12.476Z,14.20
2019-03-24T04:39:42.952Z,13.22
2019-03-24T04:42:13.236Z,14.53
2019-03-24T04:44:43.956Z,19.53
2019-03-24T04:47:16.810Z,14.00
2019-03-24T04:49:46.731Z,11.70
2019-03-24T04:52:18.203Z,17.77
2019-03-24T04:54:48.863Z,12.00
2019-03-24T04:57:19.271Z,15.53
2019-03-24T04:59:49.544Z,20.40
2019-03-24T05:02:20.127Z,14.68
2019-03-24T05:04:50.414Z,19.30
2019-03-24T05:07:21.529Z,13.37
2019-03-24T05:09:51.923Z,20.20
2019-03-24T05:12:23.131Z,10.80
2019-03-24T05:14:53.361Z,15.90
2019-03-24T05:17:27.240Z,17.80
2019-03-24T05:19:55.716Z,17.03
2019-03-24T05:22:26.053Z,11.33
2019-03-24T05:24:56.321Z,17.20
2019-03-24T05:27:26.565Z,14.57
2019-03-24T05:29:56.832Z,13.27
2019-03-24T05:32:27.081Z,20.75
2019-03-24T05:34:57.447Z,15.10
2019-03-24T05:37:27.813Z,21.87
2019-03-24T05:39:58.149Z,14.97
2019-03-24T05:42:28.444Z,17.63
2019-03-24T05:44:58.694Z,10.20
2019-03-24T05:47:36.822Z,19.50
2019-03-24T05:50:01.110Z,20.23
2019-03-24T05:52:31.375Z,21.30
2019-03-24T05:55:01.656Z,10.97
2019-03-24T05:57:31.999Z,16.17
2019-03-24T06:00:02.371Z,20.17
2019-03-24T06:02:32.819Z,18.47
2019-03-24T06:05:03.087Z,17.00
2019-03-24T06:07:33.387Z,20.30
2019-03-24T06:10:05.653Z,31.83
2019-03-24T06:12:36.265Z,24.30
2019-03-24T06:15:07.440Z,19.23
2019-03-24T06:17:47.368Z,17.67
2019-03-24T06:20:10.365Z,21.87
2019-03-24T06:22:40.752Z,21.40
2019-03-24T06:25:11.328Z,27.30
2019-03-24T06:27:41.525Z,18.60
2019-03-24T06:30:12.819Z,19.32
2019-03-24T06:32:43.191Z,18.60
2019-03-24T06:35:13.761Z,13.27
2019-03-24T06:37:44.016Z,23.97
2019-03-24T06:40:14.479Z,17.40
2019-03-24T06:42:44.709Z,21.23
2019-03-24T06:45:15.103Z,19.30
2019-03-24T06:47:45.373Z,21.00
2019-03-24T06:50:15.830Z,22.43
2019-03-24T06:52:46.118Z,23.07
2019-03-24T06:55:16.395Z,21.97
2019-03-24T06:57:46.716Z,18.97
2019-03-24T07:00:17.251Z,13.28
2019-03-24T07:02:47.620Z,17.63
2019-03-24T07:05:18.113Z,16.95
2019-03-24T07:07:48.464Z,14.87
2019-03-24T07:10:18.984Z,16.87
2019-03-24T07:12:51.405Z,18.90
2019-03-24T07:15:21.652Z,18.73
2019-03-24T07:17:51.935Z,19.70
2019-03-24T07:20:22.268Z,21.50
2019-03-24T07:22:54.282Z,20.13
2019-03-24T07:25:24.608Z,15.40
2019-03-24T07:27:55.198Z,15.80
2019-03-24T07:30:25.874Z,19.00
2019-03-24T07:32:56.213Z,16.03
2019-03-24T07:35:26.497Z,19.00
2019-03-24T07:37:57.041Z,13.57
2019-03-24T07:40:27.784Z,13.17
2019-03-24T07:42:58.115Z,11.50
2019-03-24T07:45:29.331Z,16.63
2019-03-24T07:47:59.705Z,14.10
2019-03-24T07:50:30.015Z,15.83
2019-03-24T07:53:00.365Z,17.27
2019-03-24T07:55:30.805Z,17.67
2019-03-24T07:58:01.268Z,15.08
2019-03-24T08:00:34.609Z,14.20
2019-03-24T08:03:13.883Z,13.30
2019-03-24T08:05:44.359Z,12.87
2019-03-24T08:08:14.714Z,18.32
2019-03-24T08:10:45.197Z,13.00
2019-03-24T08:13:15.527Z,15.38
2019-03-24T08:15:46.943Z,16.87
2019-03-24T08:18:17.355Z,14.03
2019-03-24T08:20:47.689Z,15.70
2019-03-24T08:23:18.269Z,16.07
2019-03-24T08:25:51.077Z,16.77
2019-03-24T08:28:23.216Z,15.32
2019-03-24T08:30:54.708Z,15.95
2019-03-24T08:33:25.070Z,16.70
2019-03-24T08:35:55.497Z,16.12
2019-03-24T08:38:25.960Z,14.18
2019-03-24T08:40:56.387Z,15.28
2019-03-24T08:43:27.922Z,11.40
2019-03-24T08:45:58.270Z,14.83
2019-03-24T08:48:28.645Z,16.77
2019-03-24T08:50:58.917Z,14.60
2019-03-24T08:53:29.243Z,15.85
2019-03-24T08:55:59.575Z,13.90
2019-03-24T08:58:29.820Z,16.10
2019-03-24T09:01:00.181Z,21.57
2019-03-24T09:03:32.545Z,25.17
2019-03-24T09:06:02.788Z,17.27
2019-03-24T09:08:33.207Z,22.45
2019-03-24T09:11:03.633Z,22.67
2019-03-24T09:13:34.140Z,21.57
2019-03-24T09:16:04.613Z,16.03
2019-03-24T09:18:52.641Z,16.00
2019-03-24T09:21:20.193Z,21.90
2019-03-24T09:23:50.456Z,19.57
2019-03-24T09:26:20.871Z,16.70
2019-03-24T09:28:51.127Z,21.97
2019-03-24T09:31:21.520Z,15.13
2019-03-24T09:33:51.971Z,18.02
2019-03-24T09:36:22.290Z,15.23
2019-03-24T09:38:52.939Z,24.70
2019-03-24T09:41:23.202Z,16.53
2019-03-24T09:43:53.516Z,20.93
2019-03-24T09:46:23.989Z,23.40
2019-03-24T09:49:02.659Z,19.57
2019-03-24T09:51:26.366Z,19.80
2019-03-24T09:53:56.692Z,23.30
2019-03-24T09:56:27.108Z,20.97
2019-03-24T09:58:57.909Z,23.80
2019-03-24T10:01:28.298Z,16.90
2019-03-24T10:03:58.587Z,21.27
2019-03-24T10:06:28.885Z,24.00
2019-03-24T10:08:59.161Z,18.02
2019-03-24T10:11:29.449Z,16.30
2019-03-24T10:13:59.836Z,16.05
2019-03-24T10:16:30.467Z,20.68
2019-03-24T10:19:00.699Z,17.55
2019-03-24T10:21:30.955Z,16.57
2019-03-24T10:24:01.301Z,18.67
2019-03-24T10:26:31.686Z,21.05
2019-03-24T10:29:01.986Z,15.20
2019-03-24T10:31:32.240Z,12.93
2019-03-24T10:34:02.954Z,16.50
2019-03-24T10:36:34.176Z,16.73
2019-03-24T10:39:05.671Z,19.75
2019-03-24T10:41:35.913Z,13.83
2019-03-24T10:44:06.388Z,16.87
2019-03-24T10:46:36.671Z,14.13
2019-03-24T10:49:06.928Z,20.30
2019-03-24T10:51:37.285Z,17.17
2019-03-24T10:54:07.624Z,15.77
2019-03-24T10:56:37.961Z,15.90
2019-03-24T10:59:08.481Z,12.83
2019-03-24T11:01:38.763Z,12.73
2019-03-24T11:04:09.171Z,12.53
2019-03-24T11:06:39.634Z,12.43
2019-03-24T11:09:11.113Z,15.58
2019-03-24T11:11:41.962Z,16.43
2019-03-24T11:14:12.249Z,13.93
2019-03-24T11:16:42.617Z,18.17
2019-03-24T11:19:12.971Z,16.47
2019-03-24T11:21:43.321Z,18.90
2019-03-24T11:24:13.757Z,17.70
2019-03-24T11:26:44.589Z,11.83
2019-03-24T11:29:14.933Z,13.83
2019-03-24T11:31:45.586Z,13.90
2019-03-24T11:34:15.913Z,17.57
2019-03-24T11:36:46.366Z,14.97
2019-03-24T11:39:16.773Z,14.47
2019-03-24T11:41:47.054Z,15.03
2019-03-24T11:44:17.393Z,14.90
2019-03-24T11:46:47.713Z,16.17
2019-03-24T11:49:18.154Z,18.83
2019-03-24T11:51:48.440Z,15.13
2019-03-24T11:54:18.841Z,11.90
2019-03-24T11:56:49.224Z,13.50
2019-03-24T11:59:19.525Z,15.47
2019-03-24T12:01:49.942Z,11.90
2019-03-24T12:04:20.201Z,13.43
2019-03-24T12:06:50.503Z,11.37
2019-03-24T12:09:20.879Z,13.75
2019-03-24T12:11:51.288Z,10.57
2019-03-24T12:14:21.533Z,9.85
2019-03-24T12:16:51.953Z,11.23
2019-03-24T12:19:23.129Z,11.40
2019-03-24T12:21:54.182Z,10.60
2019-03-24T12:24:27.399Z,11.37
2019-03-24T12:26:57.959Z,13.60
2019-03-24T12:29:28.574Z,10.53
2019-03-24T12:31:59.090Z,13.50
2019-03-24T12:34:30.990Z,11.53
2019-03-24T12:37:03.917Z,9.50
2019-03-24T12:39:35.360Z,8.63
2019-03-24T12:42:05.615Z,9.63
2019-03-24T12:44:35.890Z,11.22
2019-03-24T12:47:06.346Z,11.67
2019-03-24T12:49:36.854Z,11.05
2019-03-24T12:52:07.306Z,12.20
2019-03-24T12:54:37.793Z,10.70
2019-03-24T12:57:08.172Z,10.60
2019-03-24T12:59:38.580Z,10.37
2019-03-24T13:02:08.989Z,11.27
2019-03-24T13:04:39.292Z,7.77
2019-03-24T13:07:09.657Z,8.33
2019-03-24T13:09:40.176Z,9.07
2019-03-24T13:12:10.476Z,9.93
2019-03-24T13:14:40.766Z,11.37
2019-03-24T13:17:11.244Z,5.00
2019-03-24T13:19:43.739Z,6.53
2019-03-24T13:22:14.117Z,6.40
2019-03-24T13:24:45.618Z,7.22
2019-03-24T13:27:15.977Z,7.80
2019-03-24T13:29:46.672Z,9.83
2019-03-24T13:32:16.991Z,8.30
2019-03-24T13:34:47.432Z,8.27
2019-03-24T13:37:17.824Z,8.23
2019-03-24T13:39:48.807Z,5.67
2019-03-24T13:42:19.046Z,7.63
2019-03-24T13:44:49.451Z,7.20
2019-03-24T13:47:20.616Z,6.50
2019-03-24T13:49:50.909Z,5.67
2019-03-24T13:52:21.834Z,5.43
2019-03-24T13:54:52.172Z,6.83
2019-03-24T13:57:22.604Z,7.97
2019-03-24T13:59:53.122Z,5.63
2019-03-24T14:02:27.529Z,5.63
2019-03-24T14:04:57.922Z,5.08
2019-03-24T14:07:28.505Z,6.13
2019-03-24T14:09:59.028Z,5.10
2019-03-24T14:12:29.463Z,8.13
2019-03-24T14:14:59.746Z,4.70
2019-03-24T14:17:30.178Z,3.87
2019-03-24T14:20:00.568Z,3.13
2019-03-24T14:22:31.142Z,5.17
2019-03-24T14:25:01.640Z,3.73
2019-03-24T14:27:32.070Z,3.60
2019-03-24T14:30:03.518Z,4.73
2019-03-24T14:32:34.061Z,5.07
2019-03-24T14:35:04.876Z,4.20
2019-03-24T14:37:35.476Z,4.47
2019-03-24T14:40:06.641Z,3.25
2019-03-24T14:42:37.128Z,3.70
2019-03-24T14:45:07.908Z,4.53
2019-03-24T14:47:38.180Z,3.60
2019-03-24T14:50:08.912Z,2.77
2019-03-24T14:52:39.290Z,5.17
2019-03-24T14:55:10.776Z,4.53
2019-03-24T14:57:41.216Z,2.40
2019-03-24T15:00:12.299Z,2.90
2019-03-24T15:02:42.587Z,2.60
2019-03-24T15:05:12.956Z,4.97
2019-03-24T15:07:43.177Z,3.27
2019-03-24T15:10:13.670Z,4.77
2019-03-24T15:12:43.968Z,5.63
2019-03-24T15:15:14.454Z,5.47
2019-03-24T15:17:44.744Z,4.57
2019-03-24T15:20:15.131Z,5.73
2019-03-24T15:22:45.749Z,3.57
2019-03-24T15:25:16.205Z,4.00
2019-03-24T15:27:46.588Z,5.70
2019-03-24T15:30:17.375Z,5.27
2019-03-24T15:32:47.847Z,2.17
2019-03-24T15:35:18.277Z,3.43
2019-03-24T15:37:48.828Z,3.08
2019-03-24T15:40:19.306Z,4.40
2019-03-24T15:42:49.741Z,4.70
2019-03-24T15:45:20.399Z,4.30
2019-03-24T15:47:50.775Z,3.67
2019-03-24T15:50:21.523Z,5.23
2019-03-24T15:52:51.891Z,6.23
2019-03-24T15:55:22.453Z,3.73
2019-03-24T15:57:52.751Z,6.07
2019-03-24T16:00:40.695Z,4.40
2019-03-24T16:03:11.368Z,5.23
2019-03-24T16:05:41.886Z,6.53
2019-03-24T16:08:12.307Z,6.67
2019-03-24T16:10:42.674Z,8.73
2019-03-24T16:13:13.128Z,7.10
2019-03-24T16:15:43.556Z,8.47
2019-03-24T16:18:14.107Z,8.53
2019-03-24T16:20:44.577Z,7.53
2019-03-24T16:23:15.432Z,9.37
2019-03-24T16:25:45.928Z,7.53
2019-03-24T16:28:16.207Z,7.87
2019-03-24T16:30:46.682Z,9.63
2019-03-24T16:33:16.940Z,7.57
2019-03-24T16:35:47.270Z,10.00
2019-03-24T16:38:17.726Z,8.70
2019-03-24T16:40:48.207Z,9.80
2019-03-24T16:43:18.772Z,6.67
2019-03-24T16:45:49.370Z,5.93
2019-03-24T16:48:19.754Z,10.80
2019-03-24T16:50:50.510Z,8.03
2019-03-24T16:53:21.088Z,7.40
2019-03-24T16:55:51.469Z,10.23
2019-03-24T16:58:21.912Z,6.50
2019-03-24T17:00:52.196Z,10.13
2019-03-24T17:03:22.543Z,6.30
2019-03-24T17:05:53.022Z,7.75
2019-03-24T17:08:24.787Z,8.73
2019-03-24T17:10:55.447Z,9.67
2019-03-24T17:13:25.741Z,6.43
2019-03-24T17:15:56.220Z,7.97
2019-03-24T17:18:26.710Z,5.90
2019-03-24T17:20:57.022Z,6.33
2019-03-24T17:23:27.357Z,7.73
2019-03-24T17:25:57.692Z,7.13
2019-03-24T17:28:28.155Z,7.05
2019-03-24T17:30:58.788Z,7.58
2019-03-24T17:33:29.177Z,8.07
2019-03-24T17:35:59.671Z,7.70
2019-03-24T17:38:29.992Z,7.20
2019-03-24T17:41:00.347Z,10.27
2019-03-24T17:43:30.744Z,7.00
2019-03-24T17:46:01.742Z,4.33
2019-03-24T17:48:32.214Z,10.40
2019-03-24T17:51:02.747Z,6.17
2019-03-24T17:53:33.173Z,4.93
2019-03-24T17:56:03.534Z,3.93
2019-03-24T17:58:33.989Z,7.37
2019-03-24T18:01:04.470Z,3.23
2019-03-24T18:03:35.363Z,5.87
2019-03-24T18:06:05.975Z,10.07
2019-03-24T18:08:36.622Z,5.83
2019-03-24T18:11:07.165Z,5.62
2019-03-24T18:13:38.393Z,11.55
2019-03-24T18:16:08.904Z,10.60
2019-03-24T18:18:40.376Z,13.03
2019-03-24T18:21:11.788Z,6.60
2019-03-24T18:23:42.289Z,6.40
2019-03-24T18:26:12.794Z,7.43
2019-03-24T18:28:43.046Z,9.33
2019-03-24T18:31:13.430Z,11.07
2019-03-24T18:33:43.862Z,7.23
2019-03-24T18:36:14.191Z,11.63
2019-03-24T18:38:44.794Z,8.18
2019-03-24T18:41:15.897Z,9.60
2019-03-24T18:43:46.387Z,7.63
2019-03-24T18:46:16.854Z,8.43
2019-03-24T18:48:47.263Z,7.77
2019-03-24T18:51:19.712Z,10.08
2019-03-24T18:53:50.141Z,7.60
2019-03-24T18:56:21.318Z,8.50
2019-03-24T18:58:51.755Z,13.75
2019-03-24T19:01:22.190Z,9.97
2019-03-24T19:03:53.527Z,12.27
2019-03-24T19:06:25.024Z,11.30
2019-03-24T19:08:55.297Z,8.00
2019-03-24T19:11:25.947Z,13.50
2019-03-24T19:13:56.264Z,6.87
2019-03-24T19:16:26.806Z,10.20
2019-03-24T19:18:57.418Z,6.93
2019-03-24T19:21:27.856Z,10.30
2019-03-24T19:23:58.354Z,11.17
2019-03-24T19:26:29.031Z,7.97
2019-03-24T19:28:59.340Z,9.30
2019-03-24T19:31:30.377Z,5.08
2019-03-24T19:34:00.723Z,8.90
2019-03-24T19:36:31.088Z,11.57
2019-03-24T19:39:01.764Z,7.43
2019-03-24T19:41:34.147Z,11.67
2019-03-24T19:44:06.646Z,8.20
2019-03-24T19:46:37.007Z,13.03
2019-03-24T19:49:08.565Z,12.77
2019-03-24T19:51:39.013Z,9.40
2019-03-24T19:54:09.434Z,10.90
2019-03-24T19:56:43.412Z,10.03
2019-03-24T19:59:13.743Z,9.13
2019-03-24T20:01:44.018Z,9.73
2019-03-24T20:04:15.343Z,14.93
2019-03-24T20:06:45.853Z,8.07
2019-03-24T20:09:16.758Z,9.10
2019-03-24T20:11:47.287Z,11.43
2019-03-24T20:14:18.003Z,12.43
2019-03-24T20:16:48.639Z,8.17
2019-03-24T20:19:18.955Z,10.77
2019-03-24T20:21:49.367Z,11.37
2019-03-24T20:24:19.849Z,8.50
2019-03-24T20:26:50.126Z,7.67
2019-03-24T20:29:20.541Z,10.33
2019-03-24T20:31:51.021Z,8.47
2019-03-24T20:34:23.298Z,9.80
2019-03-24T20:36:53.802Z,7.67
2019-03-24T20:39:24.056Z,10.87
2019-03-24T20:41:54.539Z,11.23
2019-03-24T20:44:24.995Z,9.87
2019-03-24T20:46:55.724Z,9.68
2019-03-24T20:49:26.051Z,11.03
2019-03-24T20:51:56.519Z,7.37
2019-03-24T20:54:27.845Z,8.13
2019-03-24T20:56:58.167Z,11.07
2019-03-24T20:59:28.644Z,12.40
2019-03-24T21:01:59.011Z,8.53
2019-03-24T21:04:29.324Z,10.03
2019-03-24T21:06:59.617Z,9.73
2019-03-24T21:09:30.031Z,7.67
2019-03-24T21:12:00.439Z,10.00
2019-03-24T21:14:30.732Z,13.07
2019-03-24T21:17:00.945Z,9.75
2019-03-24T21:19:31.275Z,8.40
2019-03-24T21:22:01.754Z,12.27
2019-03-24T21:24:32.187Z,9.23
2019-03-24T21:27:02.521Z,9.00
2019-03-24T21:29:33.145Z,11.60
2019-03-24T21:32:03.656Z,10.93
2019-03-24T21:34:35.083Z,9.37
2019-03-24T21:37:05.578Z,9.23
2019-03-24T21:39:35.888Z,10.03
2019-03-24T21:42:06.468Z,13.17
2019-03-24T21:44:36.999Z,11.03
2019-03-24T21:47:07.252Z,8.68
2019-03-24T21:49:37.486Z,9.80
2019-03-24T21:52:07.853Z,8.53
2019-03-24T21:54:38.261Z,10.93
2019-03-24T21:57:09.382Z,12.15
2019-03-24T21:59:39.801Z,12.97
2019-03-24T22:02:10.365Z,9.47
2019-03-24T22:04:40.713Z,12.30
2019-03-24T22:07:11.108Z,10.73
2019-03-24T22:09:41.411Z,12.60
2019-03-24T22:12:11.808Z,11.83
2019-03-24T22:14:42.208Z,12.27
2019-03-24T22:17:12.638Z,9.03
2019-03-24T22:19:43.034Z,8.47
2019-03-24T22:22:13.484Z,10.87
2019-03-24T22:24:43.885Z,11.43
2019-03-24T22:27:14.458Z,7.47
2019-03-24T22:29:48.122Z,11.20
2019-03-24T22:32:19.373Z,13.40
2019-03-24T22:34:50.680Z,7.87
2019-03-24T22:37:20.939Z,12.17
2019-03-24T22:39:52.504Z,10.77
2019-03-24T22:42:22.929Z,10.93
2019-03-24T22:44:53.736Z,12.07
2019-03-24T22:47:24.124Z,11.63
2019-03-24T22:49:54.494Z,12.03
2019-03-24T22:52:24.776Z,9.80
2019-03-24T22:54:55.184Z,11.57
2019-03-24T22:57:25.750Z,11.05
2019-03-24T22:59:56.410Z,10.73
2019-03-24T23:02:27.691Z,11.77
2019-03-24T23:04:58.145Z,10.57
2019-03-24T23:07:28.415Z,10.20
2019-03-24T23:09:58.805Z,12.73
2019-03-24T23:12:31.052Z,16.07
2019-03-24T23:15:01.675Z,11.40
2019-03-24T23:17:32.011Z,12.10
2019-03-24T23:20:02.522Z,10.83
2019-03-24T23:22:32.799Z,11.00
2019-03-24T23:25:04.280Z,8.57
2019-03-24T23:27:34.593Z,9.73
2019-03-24T23:30:06.728Z,10.80
2019-03-24T23:32:37.087Z,11.90
2019-03-24T23:35:09.717Z,10.73
2019-03-24T23:37:40.050Z,10.47
2019-03-24T23:40:10.590Z,10.20
2019-03-24T23:42:41.429Z,12.73
2019-03-24T23:45:11.802Z,9.80
2019-03-24T23:47:42.143Z,7.83
2019-03-24T23:50:12.896Z,8.40
2019-03-24T23:52:43.404Z,8.90
2019-03-24T23:55:14.670Z,11.90
2019-03-24T23:57:44.990Z,7.80
